Time;durP1;ratioP1;P1;durP2;ratioP2;P2;SDS_P1;SDS_P2;PMS_P1;PMS_P2;Temp;Humidity;BMP_temperature;BMP_pressure;BME280_temperature;BME280_humidity;BME280_pressure;Samples;Min_cycle;Max_cycle;Signal;HPM_P1;HPM_P2
2021/12/20 00:02:12;;;;;;;45.92;24.67;;;5.70;99.90;;;;;;4994927;28;20234;-77
2021/12/20 00:04:58;;;;;;;44.80;25.17;;;5.70;99.90;;;;;;4993188;28;20787;-77
2021/12/20 00:07:44;;;;;;;44.35;24.63;;;5.60;99.90;;;;;;4993241;28;20202;-77
2021/12/20 00:10:31;;;;;;;44.53;25.63;;;5.60;99.90;;;;;;4994847;28;20240;-77
2021/12/20 00:13:17;;;;;;;42.80;24.33;;;5.60;99.90;;;;;;4992764;28;20286;-77
2021/12/20 00:16:03;;;;;;;42.10;25.08;;;5.70;99.90;;;;;;4992912;28;20210;-77
2021/12/20 00:18:48;;;;;;;39.97;22.83;;;5.70;99.90;;;;;;5004942;28;20210;-77
2021/12/20 00:21:34;;;;;;;41.58;23.75;;;5.70;99.90;;;;;;5010209;28;20246;-77
2021/12/20 00:24:20;;;;;;;43.80;24.00;;;5.80;99.90;;;;;;5012678;28;20205;-77
2021/12/20 00:27:08;;;;;;;41.55;26.40;;;5.80;99.90;;;;;;5016685;28;20284;-77
2021/12/20 00:29:54;;;;;;;42.75;23.70;;;5.80;99.90;;;;;;5021472;28;20238;-77
2021/12/20 00:32:40;;;;;;;37.47;22.77;;;5.80;99.90;;;;;;4992232;28;20239;-77
2021/12/20 00:35:26;;;;;;;41.10;23.42;;;5.80;99.90;;;;;;4993117;28;20202;-77
2021/12/20 00:41:15;;;;;;;38.92;22.33;;;5.80;99.90;;;;;;5009478;28;20213;-77
2021/12/20 00:44:02;;;;;;;37.58;23.38;;;5.80;99.90;;;;;;5012278;28;20210;-77
2021/12/20 00:46:48;;;;;;;38.40;24.33;;;5.90;99.90;;;;;;5012493;28;20214;-77
2021/12/20 00:49:33;;;;;;;38.60;22.67;;;5.80;99.90;;;;;;5009742;28;20746;-77
2021/12/20 00:52:20;;;;;;;39.20;23.25;;;5.70;99.90;;;;;;5012398;28;20222;-77
2021/12/20 00:55:06;;;;;;;42.10;23.13;;;5.80;99.90;;;;;;5012383;28;20202;-77
2021/12/20 00:57:54;;;;;;;36.80;21.83;;;5.70;99.90;;;;;;5016446;28;20203;-77
2021/12/20 01:00:46;;;;;;;38.55;23.67;;;5.70;99.90;;;;;;5000272;28;20290;-77
2021/12/20 01:03:32;;;;;;;36.15;21.20;;;5.80;99.90;;;;;;4992638;28;20341;-77
2021/12/20 01:06:18;;;;;;;36.58;21.52;;;5.90;99.90;;;;;;4993102;28;20211;-77
2021/12/20 01:09:04;;;;;;;41.10;24.00;;;5.80;99.90;;;;;;4996082;28;20194;-77
2021/12/20 01:11:53;;;;;;;36.67;22.08;;;5.80;99.90;;;;;;4993258;28;20323;-77
2021/12/20 01:14:38;;;;;;;37.25;21.00;;;5.80;99.90;;;;;;4993232;28;20206;-77
2021/12/20 01:17:26;;;;;;;35.50;21.48;;;5.80;99.90;;;;;;5004734;28;20206;-77
2021/12/20 01:20:12;;;;;;;34.75;21.58;;;5.90;99.90;;;;;;4999756;28;20274;-77
2021/12/20 01:22:58;;;;;;;37.15;20.75;;;5.90;99.90;;;;;;4992481;28;20277;-77
2021/12/20 01:25:46;;;;;;;33.80;20.80;;;6.00;99.90;;;;;;4996075;28;20194;-77
2021/12/20 01:28:31;;;;;;;46.40;21.60;;;6.00;99.90;;;;;;5018463;28;20268;-77
2021/12/20 01:31:17;;;;;;;34.90;21.08;;;5.90;99.90;;;;;;4991855;28;20823;-77
2021/12/20 01:34:04;;;;;;;38.90;21.92;;;6.00;99.90;;;;;;4992209;28;20206;-77
2021/12/20 01:36:50;;;;;;;31.40;19.50;;;5.90;99.90;;;;;;4992565;28;20218;-77
2021/12/20 01:39:35;;;;;;;36.42;21.85;;;5.90;99.90;;;;;;4994384;28;20374;-77
2021/12/20 01:42:22;;;;;;;36.50;20.65;;;5.90;99.90;;;;;;4992203;28;20243;-77
2021/12/20 01:45:14;;;;;;;36.13;20.10;;;5.90;99.90;;;;;;4992630;28;20207;-77
2021/12/20 01:48:04;;;;;;;34.13;20.50;;;5.90;99.90;;;;;;4992433;28;20203;-77
2021/12/20 01:54:09;;;;;;;40.10;19.63;;;5.90;99.90;;;;;;4991863;28;20207;-77
2021/12/20 01:56:55;;;;;;;37.65;20.70;;;5.90;99.90;;;;;;5004696;28;20241;-77
2021/12/20 01:59:42;;;;;;;33.63;18.70;;;6.00;99.90;;;;;;5017575;28;20204;-77
2021/12/20 02:02:27;;;;;;;36.30;19.55;;;6.10;99.90;;;;;;5050033;22;20339;-77
2021/12/20 02:05:20;;;;;;;32.28;19.33;;;6.10;99.90;;;;;;5053727;28;20246;-77
2021/12/20 02:08:18;;;;;;;38.00;21.95;;;6.00;99.90;;;;;;5052502;28;20267;-77
2021/12/20 02:11:09;;;;;;;33.53;20.55;;;6.10;99.90;;;;;;5056096;28;20225;-77
2021/12/20 02:13:55;;;;;;;39.13;20.55;;;6.00;99.90;;;;;;5035453;28;20205;-77
2021/12/20 02:16:43;;;;;;;36.60;21.67;;;6.00;99.90;;;;;;5035421;28;20565;-77
2021/12/20 02:19:29;;;;;;;35.80;20.08;;;5.90;99.90;;;;;;5019169;28;20214;-77
2021/12/20 02:22:18;;;;;;;37.40;22.38;;;5.90;99.90;;;;;;5015913;28;20221;-77
2021/12/20 02:25:04;;;;;;;28.92;18.60;;;5.90;99.90;;;;;;5015372;28;20198;-77
2021/12/20 02:27:50;;;;;;;31.88;18.45;;;5.90;99.90;;;;;;5039766;28;20710;-77
2021/12/20 02:30:44;;;;;;;33.47;20.45;;;6.00;99.90;;;;;;5048242;28;20278;-77
2021/12/20 02:37:13;;;;;;;31.63;18.90;;;5.90;99.90;;;;;;5055005;28;20224;-77
2021/12/20 02:40:00;;;;;;;32.72;18.40;;;5.80;99.90;;;;;;5015590;28;20202;-77
2021/12/20 02:42:48;;;;;;;29.83;17.83;;;5.70;99.90;;;;;;5013489;28;20688;-77
2021/12/20 02:45:37;;;;;;;27.70;16.63;;;5.70;99.90;;;;;;5015027;28;20202;-77
2021/12/20 02:48:22;;;;;;;32.33;20.00;;;5.60;99.90;;;;;;5016750;28;20210;-77
2021/12/20 02:51:08;;;;;;;34.63;20.30;;;5.60;99.90;;;;;;5014837;28;20321;-77
2021/12/20 02:53:56;;;;;;;40.00;22.77;;;5.50;99.90;;;;;;5014430;28;20616;-77
2021/12/20 02:56:44;;;;;;;44.22;20.98;;;5.60;99.90;;;;;;5027783;28;20622;-77
2021/12/20 02:59:30;;;;;;;33.97;18.90;;;5.60;99.90;;;;;;5038251;28;20193;-77
2021/12/20 03:02:18;;;;;;;36.03;19.88;;;5.60;99.90;;;;;;5034073;28;20228;-77
2021/12/20 03:05:04;;;;;;;30.67;19.08;;;5.60;99.90;;;;;;5034736;28;20220;-77
2021/12/20 03:07:53;;;;;;;36.13;20.80;;;5.70;99.90;;;;;;5025284;28;20573;-77
2021/12/20 03:10:42;;;;;;;33.47;20.38;;;5.70;99.90;;;;;;5015642;28;20598;-77
2021/12/20 03:13:29;;;;;;;32.78;19.90;;;5.70;99.90;;;;;;5016798;28;20221;-77
2021/12/20 03:16:14;;;;;;;33.42;19.98;;;5.80;99.90;;;;;;5034612;28;20209;-77
2021/12/20 03:19:00;;;;;;;37.78;19.85;;;5.60;99.90;;;;;;5034220;28;20218;-77
2021/12/20 03:21:45;;;;;;;29.67;18.75;;;5.60;99.90;;;;;;5034534;28;20312;-77
2021/12/20 03:24:31;;;;;;;38.40;19.08;;;5.50;99.90;;;;;;5034358;28;20251;-77
2021/12/20 03:27:16;;;;;;;39.88;22.98;;;5.60;99.90;;;;;;5031997;28;20261;-77
2021/12/20 03:30:06;;;;;;;36.85;19.90;;;5.60;99.90;;;;;;5041713;28;20313;-77
2021/12/20 03:32:51;;;;;;;37.00;19.70;;;5.50;99.90;;;;;;5034572;28;20465;-77
2021/12/20 03:35:37;;;;;;;31.15;18.73;;;5.40;99.90;;;;;;5033965;28;20201;-77
2021/12/20 03:38:23;;;;;;;37.35;20.05;;;5.50;99.90;;;;;;5031507;28;20221;-77
2021/12/20 03:41:08;;;;;;;29.52;17.42;;;5.50;99.90;;;;;;5033853;28;20205;-77
2021/12/20 03:43:54;;;;;;;33.08;18.42;;;5.60;99.90;;;;;;5033724;28;20198;-77
2021/12/20 03:46:41;;;;;;;34.35;18.13;;;5.60;99.90;;;;;;5031316;28;20688;-77
2021/12/20 03:49:27;;;;;;;32.17;19.45;;;5.60;99.90;;;;;;5033460;28;20224;-77
2021/12/20 03:52:13;;;;;;;33.58;18.55;;;5.60;99.90;;;;;;5032958;28;20693;-77
2021/12/20 03:54:59;;;;;;;35.05;20.42;;;5.50;99.90;;;;;;5033353;28;20336;-77
2021/12/20 03:57:45;;;;;;;33.58;17.70;;;5.50;99.90;;;;;;5035576;28;20200;-77
2021/12/20 04:00:30;;;;;;;34.25;18.63;;;5.40;99.90;;;;;;5048798;28;20205;-77
2021/12/20 04:03:18;;;;;;;28.10;17.63;;;5.40;99.90;;;;;;5052138;28;20359;-77
2021/12/20 04:06:03;;;;;;;34.10;20.98;;;5.50;99.90;;;;;;5044430;28;20201;-77
2021/12/20 04:08:49;;;;;;;35.03;19.48;;;5.50;99.90;;;;;;5013100;28;20206;-77
2021/12/20 04:11:35;;;;;;;40.28;18.20;;;5.60;99.90;;;;;;5012862;28;20269;-77
2021/12/20 04:14:20;;;;;;;32.53;19.88;;;5.60;99.90;;;;;;5012838;28;20202;-77
2021/12/20 04:17:06;;;;;;;34.25;17.67;;;5.60;99.90;;;;;;5014677;28;20203;-77
2021/12/20 04:19:53;;;;;;;32.13;19.20;;;5.50;99.90;;;;;;5012662;28;20210;-77
2021/12/20 04:22:39;;;;;;;28.25;17.67;;;5.50;99.90;;;;;;5012068;28;20218;-77
2021/12/20 04:25:24;;;;;;;30.85;19.77;;;5.50;99.90;;;;;;5013536;28;20209;-77
2021/12/20 04:28:10;;;;;;;27.55;17.67;;;5.70;99.90;;;;;;5047629;28;20758;-77
2021/12/20 04:30:56;;;;;;;32.38;17.23;;;5.80;99.90;;;;;;5032845;28;20264;-77
2021/12/20 04:33:42;;;;;;;34.63;20.40;;;5.80;99.90;;;;;;5031573;28;20336;-77
2021/12/20 04:36:29;;;;;;;37.00;20.05;;;5.70;99.90;;;;;;5021670;28;20225;-76
2021/12/20 04:39:19;;;;;;;35.47;19.52;;;5.60;99.90;;;;;;5012067;28;20704;-77
2021/12/20 04:42:05;;;;;;;34.38;17.98;;;5.60;99.90;;;;;;5012310;28;20222;-77
2021/12/20 04:44:51;;;;;;;34.58;18.83;;;5.60;99.90;;;;;;5012085;28;20214;-77
2021/12/20 04:47:36;;;;;;;32.45;20.10;;;5.60;99.90;;;;;;5013665;28;20714;-77
2021/12/20 04:50:22;;;;;;;31.52;17.80;;;5.70;99.90;;;;;;5011965;28;20688;-77
2021/12/20 04:53:09;;;;;;;32.78;18.98;;;5.70;99.90;;;;;;5011651;28;20774;-77
2021/12/20 04:55:55;;;;;;;36.88;18.90;;;5.60;99.90;;;;;;5017052;28;20201;-77
2021/12/20 04:58:40;;;;;;;30.88;17.83;;;5.60;99.90;;;;;;5044684;28;20243;-77
2021/12/20 05:01:26;;;;;;;33.13;18.42;;;5.60;99.90;;;;;;5052528;28;20283;-77
2021/12/20 05:04:12;;;;;;;31.35;17.50;;;5.50;99.90;;;;;;5052494;28;20224;-77
2021/12/20 05:06:57;;;;;;;31.88;18.20;;;5.60;99.90;;;;;;5031861;28;20205;-77
2021/12/20 05:09:44;;;;;;;33.53;18.85;;;5.70;99.90;;;;;;5032510;28;20197;-77
2021/12/20 05:12:30;;;;;;;30.33;18.13;;;5.70;99.90;;;;;;5032528;28;20237;-77
2021/12/20 05:15:16;;;;;;;32.88;18.75;;;5.70;99.90;;;;;;5028698;28;20337;-77
2021/12/20 05:18:01;;;;;;;33.80;18.13;;;5.70;99.90;;;;;;5013156;28;20210;-77
2021/12/20 05:20:47;;;;;;;30.60;18.13;;;5.80;99.90;;;;;;5012963;28;20202;-77
2021/12/20 05:23:33;;;;;;;31.25;16.45;;;5.60;99.90;;;;;;5012925;28;20694;-77
2021/12/20 05:26:20;;;;;;;31.75;17.02;;;5.70;99.90;;;;;;5023377;28;20220;-77
2021/12/20 05:29:07;;;;;;;26.92;15.88;;;5.70;99.90;;;;;;5033859;28;20277;-77
2021/12/20 05:31:53;;;;;;;35.83;16.35;;;5.70;99.90;;;;;;5031771;28;20345;-77
2021/12/20 05:34:38;;;;;;;26.65;16.00;;;5.60;99.90;;;;;;5029023;28;20340;-77
2021/12/20 05:37:24;;;;;;;33.88;18.23;;;5.60;99.90;;;;;;5012052;28;20221;-77
2021/12/20 05:40:12;;;;;;;31.77;18.38;;;5.60;99.90;;;;;;5013245;28;20201;-77
2021/12/20 05:42:59;;;;;;;31.45;17.17;;;5.60;99.90;;;;;;5014484;28;20580;-77
2021/12/20 05:45:45;;;;;;;32.72;17.77;;;5.60;99.90;;;;;;5030004;28;20209;-77
2021/12/20 05:48:30;;;;;;;28.73;16.55;;;5.60;99.90;;;;;;5035700;28;20568;-77
2021/12/20 05:51:16;;;;;;;34.38;19.05;;;5.60;99.90;;;;;;5035650;28;20225;-77
2021/12/20 05:54:01;;;;;;;32.03;18.58;;;5.60;99.90;;;;;;5033214;28;20576;-77
2021/12/20 05:56:47;;;;;;;26.67;16.98;;;5.50;99.90;;;;;;5044034;28;20248;-77
2021/12/20 05:59:35;;;;;;;36.45;19.40;;;5.50;99.90;;;;;;5047203;28;20340;-77
2021/12/20 06:02:20;;;;;;;27.98;17.05;;;5.60;99.90;;;;;;5054930;28;20748;-77
2021/12/20 06:05:07;;;;;;;33.85;18.50;;;5.60;99.90;;;;;;5038610;28;20252;-77
2021/12/20 06:07:52;;;;;;;30.23;19.02;;;5.60;99.90;;;;;;5035187;28;20212;-77
2021/12/20 06:10:39;;;;;;;35.05;19.05;;;5.40;99.90;;;;;;5034590;28;20257;-75
2021/12/20 06:13:25;;;;;;;38.60;18.83;;;5.50;99.90;;;;;;5032794;28;20361;-75
2021/12/20 06:16:12;;;;;;;29.02;16.85;;;5.50;99.90;;;;;;5014761;28;20210;-75
2021/12/20 06:18:57;;;;;;;32.50;18.05;;;5.50;99.90;;;;;;5014764;28;20257;-75
2021/12/20 06:21:43;;;;;;;31.95;17.73;;;5.50;99.90;;;;;;5014860;28;20221;-75
2021/12/20 06:24:28;;;;;;;28.92;15.52;;;5.40;99.90;;;;;;5017896;28;20224;-75
2021/12/20 06:27:14;;;;;;;29.10;16.52;;;5.30;99.90;;;;;;5038833;28;20580;-75
2021/12/20 06:30:00;;;;;;;31.27;16.40;;;5.30;99.90;;;;;;5046068;28;20347;-75
2021/12/20 06:32:47;;;;;;;27.75;16.48;;;5.30;99.90;;;;;;5053654;28;20224;-75
2021/12/20 06:35:34;;;;;;;28.70;16.75;;;5.30;99.90;;;;;;5016396;28;20679;-75
2021/12/20 06:38:20;;;;;;;31.60;17.65;;;5.40;99.90;;;;;;5014339;28;20222;-75
2021/12/20 06:41:06;;;;;;;34.53;17.45;;;5.40;99.90;;;;;;5014390;28;20281;-76
2021/12/20 06:43:52;;;;;;;33.58;16.77;;;5.40;99.90;;;;;;5016455;28;20210;-78
2021/12/20 06:46:40;;;;;;;29.27;17.63;;;5.40;99.90;;;;;;5014326;28;20780;-76
2021/12/20 06:49:27;;;;;;;35.47;18.35;;;5.40;99.90;;;;;;5014223;28;20229;-76
2021/12/20 06:52:13;;;;;;;32.22;17.13;;;5.30;99.90;;;;;;5013496;28;20225;-76
2021/12/20 06:54:59;;;;;;;29.50;15.55;;;5.30;99.90;;;;;;5031432;28;20209;-76
2021/12/20 06:57:45;;;;;;;31.35;16.98;;;5.30;99.90;;;;;;5048394;28;20255;-76
2021/12/20 07:00:32;;;;;;;28.35;16.05;;;5.30;99.90;;;;;;5049785;28;20198;-76
2021/12/20 07:03:18;;;;;;;31.20;16.13;;;5.30;99.90;;;;;;5040348;28;20225;-76
2021/12/20 07:06:05;;;;;;;34.72;17.63;;;5.20;99.90;;;;;;5013965;28;20767;-76
2021/12/20 07:08:51;;;;;;;29.75;15.27;;;5.30;99.90;;;;;;5023996;28;20201;-76
2021/12/20 07:11:36;;;;;;;31.50;16.60;;;5.20;99.90;;;;;;5033481;28;20256;-76
2021/12/20 07:14:26;;;;;;;30.60;17.08;;;5.10;99.90;;;;;;5018016;28;20214;-76
2021/12/20 07:17:11;;;;;;;33.95;18.13;;;5.00;99.90;;;;;;5013723;28;20210;-76
2021/12/20 07:19:58;;;;;;;29.25;16.55;;;5.00;99.90;;;;;;5013509;28;20206;-76
2021/12/20 07:22:44;;;;;;;32.95;17.52;;;5.10;99.90;;;;;;5015116;28;20217;-76
2021/12/20 07:25:30;;;;;;;31.00;17.48;;;5.10;99.90;;;;;;5013226;28;20249;-76
2021/12/20 07:28:15;;;;;;;32.67;17.40;;;5.10;99.90;;;;;;5035647;28;20244;-76
2021/12/20 07:31:01;;;;;;;28.75;15.77;;;5.20;99.90;;;;;;5013270;28;20202;-76
2021/12/20 07:33:47;;;;;;;31.88;18.00;;;5.20;99.90;;;;;;5026184;28;20212;-76
2021/12/20 07:36:33;;;;;;;30.25;17.17;;;5.20;99.90;;;;;;5039377;28;20205;-77
2021/12/20 07:39:20;;;;;;;34.58;18.63;;;5.20;99.90;;;;;;5031362;28;20574;-77
2021/12/20 07:42:07;;;;;;;29.08;16.52;;;5.20;99.90;;;;;;5022636;28;20229;-77
2021/12/20 07:44:52;;;;;;;34.97;18.35;;;5.00;99.90;;;;;;5038310;28;20310;-77
2021/12/20 07:47:38;;;;;;;31.15;17.05;;;5.00;99.90;;;;;;5048190;28;20674;-77
2021/12/20 07:50:24;;;;;;;36.97;20.02;;;5.10;99.90;;;;;;5040859;28;20690;-77
2021/12/20 07:53:09;;;;;;;33.05;18.30;;;5.10;99.90;;;;;;5029249;28;20228;-77
2021/12/20 07:55:56;;;;;;;38.42;17.30;;;5.00;99.90;;;;;;5045803;28;20203;-77
2021/12/20 07:58:42;;;;;;;26.92;15.55;;;5.00;99.90;;;;;;5043382;28;20750;-76
2021/12/20 08:03:55;;;;;;;39.65;18.90;;;5.20;99.90;;;;;;4987191;28;20238;-75
2021/12/20 08:06:42;;;;;;;32.95;17.75;;;5.20;99.90;;;;;;4990189;28;20207;-75
2021/12/20 08:09:28;;;;;;;34.50;17.75;;;5.10;99.90;;;;;;5005046;28;20510;-75
2021/12/20 08:12:15;;;;;;;34.15;19.50;;;5.10;99.90;;;;;;4998471;28;20231;-75
2021/12/20 08:15:01;;;;;;;43.97;18.65;;;5.10;99.90;;;;;;4984350;28;20298;-75
2021/12/20 08:17:46;;;;;;;37.08;19.75;;;5.00;99.90;;;;;;4992759;28;20206;-75
2021/12/20 08:20:32;;;;;;;37.72;20.63;;;5.00;99.90;;;;;;4992979;28;20203;-75
2021/12/20 08:23:18;;;;;;;31.60;18.45;;;5.10;99.90;;;;;;4989945;28;20242;-76
2021/12/20 08:26:04;;;;;;;28.45;16.55;;;5.00;99.90;;;;;;4991179;28;20262;-75
2021/12/20 08:28:51;;;;;;;34.53;18.13;;;5.00;99.90;;;;;;4993217;28;20586;-75
2021/12/20 08:31:36;;;;;;;28.15;16.10;;;4.90;99.90;;;;;;4988429;28;20848;-75
2021/12/20 08:34:22;;;;;;;30.17;17.38;;;4.80;99.90;;;;;;4980103;28;20760;-75
2021/12/20 08:37:08;;;;;;;39.72;16.10;;;4.80;99.90;;;;;;4988317;28;20688;-75
2021/12/20 08:39:53;;;;;;;33.00;18.38;;;4.80;99.90;;;;;;4990091;28;20341;-74
2021/12/20 08:42:40;;;;;;;29.67;15.30;;;4.70;99.90;;;;;;4983462;28;20218;-74
2021/12/20 08:45:27;;;;;;;26.55;16.45;;;4.70;99.90;;;;;;4990908;28;20285;-74
2021/12/20 08:48:13;;;;;;;34.95;18.27;;;4.70;99.90;;;;;;4996311;28;20577;-75
2021/12/20 08:51:01;;;;;;;39.83;16.70;;;4.70;99.90;;;;;;4989198;28;20327;-75
2021/12/20 08:53:47;;;;;;;27.10;16.48;;;4.70;99.90;;;;;;4972238;28;20236;-75
2021/12/20 08:56:33;;;;;;;35.28;20.35;;;4.80;99.90;;;;;;4985480;28;20565;-75
2021/12/20 08:59:19;;;;;;;31.08;19.60;;;4.80;99.90;;;;;;4986185;28;20312;-75
2021/12/20 09:02:09;;;;;;;35.35;19.10;;;4.90;99.90;;;;;;4980751;28;20230;-75
2021/12/20 09:04:54;;;;;;;29.45;15.77;;;5.00;99.90;;;;;;4973902;28;20195;-75
2021/12/20 09:07:41;;;;;;;27.13;14.35;;;5.00;99.90;;;;;;4992315;28;20680;-75
2021/12/20 09:10:29;;;;;;;24.98;11.52;;;5.00;99.90;;;;;;4990601;28;20735;-75
2021/12/20 09:13:15;;;;;;;22.20;9.77;;;5.10;99.90;;;;;;4972317;28;20223;-75
2021/12/20 09:16:01;;;;;;;23.70;8.05;;;5.20;99.90;;;;;;4976925;28;20238;-75
2021/12/20 09:18:48;;;;;;;20.00;7.20;;;5.20;99.90;;;;;;4976946;28;20199;-75
2021/12/20 09:21:34;;;;;;;17.83;8.60;;;5.30;99.90;;;;;;4978584;28;20777;-75
2021/12/20 09:24:20;;;;;;;25.05;6.35;;;5.30;99.90;;;;;;4976461;28;20207;-75
2021/12/20 09:27:07;;;;;;;18.88;5.93;;;5.40;99.90;;;;;;4994218;28;20285;-75
2021/12/20 09:29:52;;;;;;;14.90;5.43;;;5.50;99.90;;;;;;4995987;28;20258;-75
2021/12/20 09:32:38;;;;;;;18.00;6.13;;;5.50;99.90;;;;;;4977473;28;20776;-75
2021/12/20 09:35:26;;;;;;;22.17;5.80;;;5.50;99.90;;;;;;4976945;28;20211;-76
2021/12/20 09:38:16;;;;;;;12.63;5.05;;;5.60;99.90;;;;;;4976560;28;20207;-75
2021/12/20 09:41:17;;;;;;;19.08;5.28;;;5.60;99.90;;;;;;4978194;28;20200;-75
2021/12/20 09:44:03;;;;;;;19.80;5.05;;;5.70;99.90;;;;;;4976061;28;20203;-75
2021/12/20 09:46:49;;;;;;;15.27;4.32;;;5.70;99.90;;;;;;4986530;28;20210;-75
2021/12/20 09:49:35;;;;;;;17.17;4.53;;;5.80;99.90;;;;;;4995738;28;20708;-75
2021/12/20 09:52:22;;;;;;;13.95;4.60;;;5.80;99.90;;;;;;4993874;28;20235;-75
2021/12/20 09:55:09;;;;;;;13.85;4.47;;;5.90;99.90;;;;;;4995584;28;20679;-75
2021/12/20 09:58:00;;;;;;;22.63;5.45;;;5.80;99.90;;;;;;5002208;28;20206;-75
2021/12/20 10:00:47;;;;;;;16.83;4.13;;;5.90;99.90;;;;;;4986640;28;20688;-75
2021/12/20 10:03:34;;;;;;;20.25;4.78;;;6.10;99.90;;;;;;4977083;28;20299;-75
2021/12/20 10:06:21;;;;;;;10.88;4.60;;;6.00;99.90;;;;;;4995610;28;20206;-75
2021/12/20 10:09:12;;;;;;;16.00;4.38;;;6.00;99.90;;;;;;4995434;28;20558;-75
2021/12/20 10:12:18;;;;;;;18.00;4.75;;;6.10;99.90;;;;;;4977223;28;20609;-75
2021/12/20 10:15:08;;;;;;;16.55;5.20;;;6.20;99.90;;;;;;4975832;28;20203;-75
2021/12/20 10:17:56;;;;;;;13.98;4.22;;;6.20;99.90;;;;;;4975713;28;20279;-75
2021/12/20 10:20:43;;;;;;;17.85;4.53;;;6.30;99.90;;;;;;4977492;28;20204;-75
2021/12/20 10:23:30;;;;;;;9.30;3.45;;;6.40;99.90;;;;;;4975438;28;20219;-75
2021/12/20 10:26:19;;;;;;;10.02;3.75;;;6.60;99.90;;;;;;4982948;28;20222;-75
2021/12/20 10:29:17;;;;;;;16.38;3.63;;;6.90;99.90;;;;;;4986112;28;20664;-75
2021/12/20 10:32:03;;;;;;;18.25;3.67;;;7.50;99.90;;;;;;4994660;28;20703;-75
2021/12/20 10:34:49;;;;;;;11.17;4.00;;;8.10;99.90;;;;;;4995105;28;20203;-75
2021/12/20 10:37:39;;;;;;;9.55;3.90;;;8.70;99.90;;;;;;4976660;28;21000;-75
2021/12/20 10:40:26;;;;;;;20.50;4.70;;;9.10;99.90;;;;;;4976123;28;20578;-75
2021/12/20 10:43:15;;;;;;;15.70;4.57;;;9.50;99.90;;;;;;4971717;28;20551;-75
2021/12/20 10:46:10;;;;;;;10.55;4.30;;;10.00;99.90;;;;;;4997401;28;20747;-75
2021/12/20 10:49:01;;;;;;;10.25;3.58;;;10.30;99.90;;;;;;4992307;28;20231;-75
2021/12/20 10:51:49;;;;;;;16.40;4.00;;;10.80;99.90;;;;;;4994613;28;20203;-75
2021/12/20 10:54:43;;;;;;;15.10;4.13;;;10.90;99.90;;;;;;4993768;28;20417;-75
2021/12/20 10:57:29;;;;;;;18.57;2.93;;;11.00;99.90;;;;;;5001057;28;20472;-75
2021/12/20 11:00:19;;;;;;;14.00;4.73;;;11.30;99.90;;;;;;4992206;28;20462;-75
2021/12/20 11:03:20;;;;;;;19.43;4.10;;;11.40;99.40;;;;;;4993878;28;20420;-75
2021/12/20 11:06:25;;;;;;;12.63;3.20;;;11.40;99.10;;;;;;4993987;28;20426;-75
2021/12/20 11:09:17;;;;;;;11.17;3.40;;;11.40;98.70;;;;;;4992498;28;20860;-75
2021/12/20 11:12:05;;;;;;;11.77;3.50;;;11.00;98.20;;;;;;4993810;28;20810;-75
2021/12/20 11:14:52;;;;;;;10.57;3.93;;;10.70;99.80;;;;;;4994225;28;20443;-75
2021/12/20 11:17:43;;;;;;;21.40;4.67;;;10.50;99.90;;;;;;4993892;28;20445;-75
2021/12/20 11:20:28;;;;;;;14.07;3.97;;;10.10;99.90;;;;;;4991423;28;20465;-75
2021/12/20 11:23:25;;;;;;;10.57;4.33;;;9.70;99.90;;;;;;4993619;28;20517;-75
2021/12/20 11:26:11;;;;;;;16.67;5.00;;;9.50;99.90;;;;;;4997494;28;20926;-75
2021/12/20 11:28:57;;;;;;;15.37;5.20;;;9.20;99.90;;;;;;4985223;28;20308;-75
2021/12/20 11:31:43;;;;;;;14.03;4.33;;;8.80;99.90;;;;;;4988697;28;20540;-75
2021/12/20 11:34:30;;;;;;;14.50;3.85;;;8.60;99.90;;;;;;4985021;28;20836;-75
2021/12/20 11:37:18;;;;;;;12.73;4.10;;;8.40;99.90;;;;;;4989898;28;20777;-75
2021/12/20 11:40:07;;;;;;;10.60;4.10;;;8.20;99.90;;;;;;4984252;28;20454;-75
2021/12/20 11:42:53;;;;;;;10.70;4.05;;;7.90;99.90;;;;;;4990595;28;20461;-75
2021/12/20 11:45:40;;;;;;;14.45;4.40;;;7.80;99.90;;;;;;4988703;28;20210;-76
2021/12/20 11:48:28;;;;;;;12.57;4.00;;;7.70;99.90;;;;;;4987491;28;20210;-74
2021/12/20 11:51:15;;;;;;;15.85;3.40;;;7.60;99.90;;;;;;4990826;28;20274;-76
2021/12/20 11:54:01;;;;;;;14.98;4.10;;;7.60;99.90;;;;;;4992225;28;20230;-76
2021/12/20 11:56:47;;;;;;;12.15;3.60;;;7.60;99.90;;;;;;4989117;28;20206;-76
2021/12/20 11:59:51;;;;;;;13.15;4.40;;;7.60;99.90;;;;;;4987692;28;20297;-76
2021/12/20 12:02:42;;;;;;;20.50;3.85;;;7.60;99.90;;;;;;4992817;28;20238;-77
2021/12/20 12:05:49;;;;;;;11.07;3.00;;;7.50;99.90;;;;;;4992474;28;20203;-76
2021/12/20 12:08:38;;;;;;;9.27;3.92;;;7.60;99.90;;;;;;4986974;28;20207;-76
2021/12/20 12:11:34;;;;;;;13.48;4.03;;;7.60;99.90;;;;;;4990918;28;20294;-76
2021/12/20 12:14:32;;;;;;;19.38;4.25;;;7.60;99.90;;;;;;4992077;28;20290;-77
2021/12/20 12:17:17;;;;;;;11.32;3.58;;;7.70;99.90;;;;;;4990621;28;20195;-76
2021/12/20 12:20:03;;;;;;;12.60;3.67;;;7.80;99.90;;;;;;4992202;28;20285;-76
2021/12/20 12:22:49;;;;;;;10.43;3.28;;;7.80;99.90;;;;;;4977344;28;20228;-76
2021/12/20 12:25:43;;;;;;;13.98;3.63;;;7.90;99.90;;;;;;4992008;28;20210;-76
2021/12/20 12:28:49;;;;;;;14.30;3.55;;;8.20;99.90;;;;;;4987183;28;20258;-76
2021/12/20 12:32:00;;;;;;;12.00;5.38;;;8.60;99.90;;;;;;4988741;28;20241;-76
2021/12/20 12:34:47;;;;;;;19.55;4.20;;;9.60;99.90;;;;;;4980705;28;20251;-76
2021/12/20 12:37:36;;;;;;;8.83;2.97;;;10.50;99.90;;;;;;4989614;28;20342;-76
2021/12/20 12:40:23;;;;;;;11.70;3.30;;;11.20;94.70;;;;;;4993190;28;20438;-76
2021/12/20 12:43:10;;;;;;;15.10;3.70;;;11.50;88.60;;;;;;4995052;28;20582;-76
2021/12/20 12:45:58;;;;;;;14.40;3.37;;;11.80;84.90;;;;;;4983236;28;20450;-76
2021/12/20 12:48:47;;;;;;;13.07;4.10;;;12.70;73.40;;;;;;4990088;28;20469;-76
2021/12/20 12:51:40;;;;;;;8.57;3.17;;;13.50;64.00;;;;;;4991399;28;20466;-76
2021/12/20 12:54:37;;;;;;;11.00;2.70;;;14.40;57.20;;;;;;4982631;28;20955;-77
2021/12/20 12:57:35;;;;;;;7.20;2.70;;;15.60;50.10;;;;;;4989064;28;20525;-74
2021/12/20 13:00:32;;;;;;;8.73;2.90;;;17.20;43.10;;;;;;4991733;28;20466;-77
2021/12/20 13:03:18;;;;;;;9.77;3.00;;;18.60;38.40;;;;;;4998631;28;20493;-77
2021/12/20 13:06:04;;;;;;;8.97;2.90;;;19.20;37.30;;;;;;5001115;28;20418;-77
2021/12/20 13:08:52;;;;;;;16.97;3.07;;;18.80;36.20;;;;;;5000879;28;20470;-78
2021/12/20 13:11:38;;;;;;;13.53;3.17;;;17.50;36.90;;;;;;5004390;28;20521;-76
2021/12/20 13:14:23;;;;;;;9.67;3.00;;;15.60;40.50;;;;;;4994722;28;20477;-77
2021/12/20 13:17:10;;;;;;;9.53;2.90;;;13.70;45.80;;;;;;4994975;28;20568;-77
2021/12/20 13:20:11;;;;;;;14.17;4.00;;;12.20;52.60;;;;;;4990470;28;20461;-77
2021/12/20 13:23:01;;;;;;;9.60;3.00;;;11.00;61.40;;;;;;4991270;28;20883;-76
2021/12/20 13:25:52;;;;;;;11.73;3.00;;;10.10;69.60;;;;;;4991934;28;20781;-76
2021/12/20 13:28:40;;;;;;;21.70;3.90;;;9.50;76.20;;;;;;4979922;28;20475;-76
2021/12/20 13:31:27;;;;;;;10.60;2.97;;;9.10;79.30;;;;;;4975726;28;20498;-76
2021/12/20 13:34:15;;;;;;;9.80;3.40;;;8.80;82.60;;;;;;4984580;28;20452;-76
2021/12/20 13:37:06;;;;;;;9.93;3.37;;;8.60;87.70;;;;;;4988700;28;20421;-76
2021/12/20 13:39:55;;;;;;;13.50;3.03;;;8.30;90.60;;;;;;4991544;28;20462;-76
2021/12/20 13:42:50;;;;;;;10.17;3.60;;;8.20;91.60;;;;;;4990072;28;20990;-76
2021/12/20 13:45:35;;;;;;;9.53;2.40;;;8.00;93.30;;;;;;4991328;28;20426;-76
2021/12/20 13:48:21;;;;;;;17.13;3.23;;;7.90;94.20;;;;;;4988893;28;20811;-75
2021/12/20 13:51:08;;;;;;;9.10;2.80;;;7.80;94.90;;;;;;4978769;28;20784;-75
2021/12/20 13:53:54;;;;;;;10.30;2.73;;;7.70;95.40;;;;;;4988235;28;20466;-75
2021/12/20 13:56:42;;;;;;;13.87;3.33;;;7.70;96.50;;;;;;4988381;28;20454;-75
2021/12/20 13:59:32;;;;;;;13.35;3.20;;;7.70;97.50;;;;;;4990197;28;20569;-75
2021/12/20 14:02:21;;;;;;;13.00;3.00;;;7.60;98.90;;;;;;5010309;22;20887;-76
2021/12/20 14:05:15;;;;;;;7.60;3.40;;;7.50;98.90;;;;;;5055541;28;20569;-76
2021/12/20 14:08:01;;;;;;;11.60;3.30;;;7.40;98.70;;;;;;5042375;28;20673;-77
2021/12/20 14:10:47;;;;;;;23.92;4.90;;;7.30;99.90;;;;;;5053100;28;20438;-76
2021/12/20 14:13:33;;;;;;;9.13;3.88;;;7.20;99.90;;;;;;5043331;28;20344;-77
2021/12/20 14:16:19;;;;;;;15.48;4.40;;;7.20;99.90;;;;;;5036079;28;20255;-76
2021/12/20 14:19:06;;;;;;;13.00;4.57;;;7.20;99.90;;;;;;5030203;28;20205;-76
2021/12/20 14:22:00;;;;;;;19.77;4.97;;;7.20;99.90;;;;;;5040289;28;20328;-76
2021/12/20 14:24:47;;;;;;;14.82;4.07;;;7.10;99.90;;;;;;5038699;28;20774;-76
2021/12/20 14:27:33;;;;;;;13.87;4.47;;;7.10;99.90;;;;;;5049412;28;20243;-76
2021/12/20 14:30:23;;;;;;;11.73;5.13;;;7.00;99.90;;;;;;5033643;28;20943;-76
2021/12/20 14:33:21;;;;;;;16.55;4.43;;;7.00;99.90;;;;;;5039302;28;20221;-76
2021/12/20 14:36:10;;;;;;;11.57;3.58;;;6.90;99.90;;;;;;5029318;28;20204;-76
2021/12/20 14:38:57;;;;;;;16.38;3.72;;;6.90;99.90;;;;;;5033573;28;20230;-76